Time;durP1;ratioP1;P1;durP2;ratioP2;P2;SDS_P1;SDS_P2;PMS_P1;PMS_P2;Temp;Humidity;BMP_temperature;BMP_pressure;BME280_temperature;BME280_humidity;BME280_pressure;Samples;Min_cycle;Max_cycle;Signal;HPM_P1;HPM_P2
2021/04/25 00:02:26;;;;;;;5.53;5.03;;;;;;;9.12;25.74;101928.56;4943445;28;97947;-73
2021/04/25 00:04:52;;;;;;;6.15;5.07;;;;;;;9.09;25.77;101923.13;4944078;28;98863;-74
2021/04/25 00:07:19;;;;;;;6.47;5.50;;;;;;;9.09;25.91;101925.78;4943899;28;96845;-74
2021/04/25 00:09:46;;;;;;;5.97;5.45;;;;;;;9.10;25.91;101924.91;4943958;28;97253;-73
2021/04/25 00:12:15;;;;;;;6.57;5.00;;;;;;;9.08;25.93;101931.91;4943873;28;96784;-73
2021/04/25 00:14:42;;;;;;;10.25;5.00;;;;;;;9.08;25.91;101927.50;4944685;28;97641;-73
2021/04/25 00:17:09;;;;;;;6.75;4.57;;;;;;;9.08;25.95;101926.59;4945182;28;96783;-73
2021/04/25 00:19:37;;;;;;;6.22;4.93;;;;;;;9.15;25.83;101926.06;4942000;28;97091;-72
2021/04/25 00:22:04;;;;;;;5.28;4.63;;;;;;;9.05;26.01;101924.72;4943212;28;98477;-74
2021/04/25 00:24:31;;;;;;;6.18;5.00;;;;;;;8.99;25.88;101924.44;4945471;28;97512;-73
2021/04/25 00:26:58;;;;;;;6.75;6.05;;;;;;;8.96;25.99;101911.03;4942209;28;97051;-72
2021/04/25 00:29:25;;;;;;;6.05;4.57;;;;;;;8.96;25.81;101916.34;4943124;28;97216;-73
2021/04/25 00:31:52;;;;;;;8.13;5.10;;;;;;;8.96;26.06;101915.44;4942929;28;100445;-73
2021/04/25 00:34:19;;;;;;;6.07;4.95;;;;;;;8.92;25.86;101909.06;4942825;28;98447;-72
2021/04/25 00:36:50;;;;;;;5.28;4.78;;;;;;;8.90;26.00;101910.75;4960177;28;97134;-71
2021/04/25 00:39:17;;;;;;;6.07;4.80;;;;;;;8.88;26.03;101907.09;4960868;28;97238;-72
2021/04/25 00:41:44;;;;;;;8.07;5.53;;;;;;;8.82;25.99;101909.47;4943667;28;99193;-72
2021/04/25 00:44:11;;;;;;;6.63;5.30;;;;;;;8.78;26.01;101902.22;4944070;28;98867;-72
2021/04/25 00:46:41;;;;;;;7.25;5.43;;;;;;;8.78;26.31;101907.53;4943009;28;96877;-72
2021/04/25 00:49:08;;;;;;;7.13;5.50;;;;;;;8.78;26.17;101904.88;4944838;28;96875;-72
2021/04/25 00:51:40;;;;;;;5.28;4.78;;;;;;;8.78;26.18;101906.63;4960932;28;96869;-74
2021/04/25 00:54:08;;;;;;;5.75;5.22;;;;;;;8.76;26.04;101905.63;4943826;28;97804;-72
2021/04/25 00:56:35;;;;;;;9.70;6.57;;;;;;;8.76;26.16;101908.28;4942805;28;96759;-72
2021/04/25 00:59:03;;;;;;;6.40;5.38;;;;;;;8.73;26.27;101905.50;4942765;28;96773;-71
2021/04/25 01:01:33;;;;;;;6.25;5.65;;;;;;;8.68;26.17;101897.31;4943214;28;96653;-72
2021/04/25 01:04:01;;;;;;;6.95;5.07;;;;;;;8.66;26.36;101901.63;4944158;28;97637;-73
2021/04/25 01:06:28;;;;;;;8.30;5.22;;;;;;;8.63;26.38;101897.94;4943744;28;96887;-72
2021/04/25 01:08:55;;;;;;;5.50;5.00;;;;;;;8.60;26.26;101895.16;4944785;28;96876;-73
2021/04/25 01:11:23;;;;;;;9.02;6.05;;;;;;;8.56;26.50;101893.19;4937632;28;97462;-72
2021/04/25 01:13:51;;;;;;;5.97;5.38;;;;;;;8.47;26.50;101896.34;4942280;28;98812;-72
2021/04/25 01:16:20;;;;;;;6.15;5.10;;;;;;;8.40;26.40;101898.59;4956656;28;97229;-72
2021/04/25 01:18:47;;;;;;;8.45;4.88;;;;;;;8.36;26.72;101896.59;4941002;28;96826;-72
2021/04/25 01:21:17;;;;;;;6.90;5.70;;;;;;;8.36;26.59;101886.91;4940706;28;97870;-73
2021/04/25 01:23:43;;;;;;;7.50;5.80;;;;;;;8.34;26.43;101882.38;4943709;28;97282;-72
2021/04/25 01:26:10;;;;;;;7.85;5.57;;;;;;;8.31;26.75;101891.09;4942275;28;96819;-72
2021/04/25 01:28:38;;;;;;;5.82;5.22;;;;;;;8.31;26.56;101899.06;4940776;28;96929;-73
2021/04/25 01:31:05;;;;;;;6.20;4.95;;;;;;;8.32;26.65;101890.25;4942448;28;98503;-73
2021/04/25 01:33:33;;;;;;;6.55;5.32;;;;;;;8.30;26.78;101906.91;4945979;28;100115;-73
2021/04/25 01:36:02;;;;;;;5.53;5.00;;;;;;;8.28;26.82;101888.28;4945258;28;97129;-73
2021/04/25 01:38:29;;;;;;;6.82;4.93;;;;;;;8.27;26.78;101896.16;4944845;28;96969;-73
2021/04/25 01:40:56;;;;;;;10.82;6.07;;;;;;;8.18;26.69;101896.66;4946224;28;96835;-75
2021/04/25 01:43:24;;;;;;;6.90;5.30;;;;;;;8.15;26.95;101905.34;4947436;28;98740;-72
2021/04/25 01:45:52;;;;;;;5.22;4.72;;;;;;;8.11;27.00;101911.31;4944310;28;96947;-73
2021/04/25 01:48:19;;;;;;;5.72;4.95;;;;;;;8.08;26.85;101899.66;4945942;28;96873;-73
2021/04/25 01:50:46;;;;;;;5.35;4.85;;;;;;;8.00;27.17;101909.88;4945823;28;99638;-73
2021/04/25 01:53:13;;;;;;;9.57;4.88;;;;;;;7.92;26.89;101908.63;4945170;28;98415;-74
2021/04/25 01:55:41;;;;;;;6.22;5.65;;;;;;;7.74;27.14;101915.66;4931607;28;96838;-73
2021/04/25 01:58:09;;;;;;;5.20;4.70;;;;;;;7.56;27.41;101917.38;4963214;28;96896;-73
2021/04/25 02:00:39;;;;;;;4.78;4.45;;;;;;;7.36;27.44;101909.19;4944081;28;98927;-73
2021/04/25 02:03:07;;;;;;;6.47;4.20;;;;;;;7.22;27.56;101908.44;4960036;28;98841;-74
2021/04/25 02:05:53;;;;;;;5.35;4.85;;;;;;;7.10;27.44;101911.38;4946504;28;97794;-74
2021/04/25 02:08:20;;;;;;;5.47;4.97;;;;;;;7.06;27.42;101911.13;4928810;28;97382;-73
2021/04/25 02:10:51;;;;;;;6.90;5.43;;;;;;;7.06;27.40;101906.75;4927975;28;96890;-74
2021/04/25 02:13:18;;;;;;;6.53;5.93;;;;;;;7.02;27.88;101909.13;4947350;28;97832;-72
2021/04/25 02:15:46;;;;;;;5.03;4.43;;;;;;;6.95;27.49;101902.63;4929753;28;96803;-73
2021/04/25 02:18:16;;;;;;;5.85;5.30;;;;;;;6.89;27.92;101901.41;4946878;28;96844;-74
2021/04/25 02:20:43;;;;;;;6.00;4.40;;;;;;;6.83;27.62;101907.28;4943363;28;99328;-72
2021/04/25 02:23:10;;;;;;;5.90;5.00;;;;;;;6.78;28.07;101905.19;4946734;28;99637;-73
2021/04/25 02:25:39;;;;;;;5.63;4.80;;;;;;;6.80;27.77;101909.72;4945729;28;96823;-73
2021/04/25 02:28:07;;;;;;;5.35;4.93;;;;;;;6.75;27.67;101908.56;4945781;28;96832;-72
2021/04/25 02:30:41;;;;;;;6.03;5.50;;;;;;;6.68;28.07;101914.38;4944893;28;97734;-74
2021/04/25 02:33:09;;;;;;;6.13;5.18;;;;;;;6.63;28.00;101914.94;4947015;28;97165;-73
2021/04/25 02:35:38;;;;;;;5.10;4.70;;;;;;;6.58;27.66;101919.06;4944850;28;97508;-73
2021/04/25 02:38:05;;;;;;;4.63;4.32;;;;;;;6.59;27.78;101916.50;4945634;28;96903;-72
2021/04/25 02:40:34;;;;;;;4.47;4.10;;;;;;;6.63;28.03;101922.88;4943674;28;98847;-73
2021/04/25 02:43:04;;;;;;;5.63;5.22;;;;;;;6.63;27.78;101918.50;4944694;28;98406;-72
2021/04/25 02:45:32;;;;;;;5.43;4.93;;;;;;;6.64;27.72;101914.09;4942709;28;96882;-73
2021/04/25 02:48:02;;;;;;;6.47;4.88;;;;;;;6.62;27.95;101910.44;4941921;28;97171;-73
2021/04/25 02:50:31;;;;;;;8.25;5.20;;;;;;;6.63;27.97;101914.94;4941970;28;98817;-73
2021/04/25 02:52:58;;;;;;;5.85;5.22;;;;;;;6.64;28.17;101920.31;4961170;28;97663;-72
2021/04/25 02:55:26;;;;;;;6.03;5.45;;;;;;;6.65;27.79;101921.22;4944367;28;97604;-73
2021/04/25 02:57:53;;;;;;;6.38;5.25;;;;;;;6.64;27.98;101920.31;4942278;28;96868;-71
2021/04/25 03:00:23;;;;;;;5.78;5.20;;;;;;;6.62;27.83;101921.03;4924547;28;100087;-71
2021/04/25 03:02:50;;;;;;;5.78;4.47;;;;;;;6.60;28.08;101923.59;4943208;28;98435;-71
2021/04/25 03:05:17;;;;;;;6.20;5.03;;;;;;;6.51;28.29;101916.88;4945521;28;96742;-72
2021/04/25 03:07:44;;;;;;;6.45;4.85;;;;;;;6.45;28.04;101916.56;4944129;28;96911;-73
2021/04/25 03:10:13;;;;;;;5.85;4.97;;;;;;;6.34;28.31;101920.34;4944467;28;99583;-73
2021/04/25 03:12:40;;;;;;;6.63;4.72;;;;;;;6.27;28.53;101926.13;4938647;28;97556;-72
2021/04/25 03:15:09;;;;;;;7.68;5.07;;;;;;;6.19;28.72;101926.56;4926457;28;97209;-72
2021/04/25 03:17:36;;;;;;;7.53;4.53;;;;;;;6.18;29.03;101930.00;4943499;28;97228;-72
2021/04/25 03:20:09;;;;;;;7.30;4.50;;;;;;;6.13;28.84;101928.84;4960475;28;98866;-72
2021/04/25 03:22:39;;;;;;;5.13;4.63;;;;;;;6.08;28.85;101929.41;4944682;28;98855;-73
2021/04/25 03:25:07;;;;;;;4.88;4.38;;;;;;;6.05;29.00;101929.22;4945812;28;97403;-72
2021/04/25 03:27:34;;;;;;;8.27;4.88;;;;;;;6.00;29.26;101925.41;4945212;28;97034;-73
2021/04/25 03:30:02;;;;;;;5.07;4.68;;;;;;;5.93;29.05;101934.72;4944072;28;98510;-74
2021/04/25 03:32:29;;;;;;;5.60;5.10;;;;;;;5.87;29.33;101936.06;4945074;28;100652;-73
2021/04/25 03:34:56;;;;;;;5.25;4.65;;;;;;;5.79;29.55;101925.09;4944529;28;96853;-74
2021/04/25 03:37:24;;;;;;;7.95;4.90;;;;;;;5.72;29.41;101928.16;4944015;28;96903;-74
2021/04/25 03:39:51;;;;;;;5.15;4.65;;;;;;;5.70;29.63;101928.91;4944545;28;99774;-72
2021/04/25 03:42:18;;;;;;;4.88;4.38;;;;;;;5.65;29.64;101933.00;4928766;28;99823;-74
2021/04/25 03:44:45;;;;;;;5.20;4.70;;;;;;;5.51;30.20;101931.25;4946153;28;97610;-73
2021/04/25 03:47:18;;;;;;;6.05;4.75;;;;;;;5.40;30.84;101935.00;4926905;28;97233;-73
2021/04/25 03:49:48;;;;;;;6.30;4.55;;;;;;;5.33;30.60;101941.63;4943826;28;98503;-73
2021/04/25 03:52:15;;;;;;;7.72;5.20;;;;;;;5.25;30.71;101937.63;4943651;28;98431;-74
2021/04/25 03:54:43;;;;;;;9.30;5.25;;;;;;;5.24;30.49;101935.81;4944334;28;97041;-73
2021/04/25 03:57:10;;;;;;;7.20;4.72;;;;;;;5.23;30.18;101939.25;4943225;28;97728;-73
2021/04/25 03:59:36;;;;;;;5.20;4.70;;;;;;;5.21;30.43;101943.50;4943694;28;97842;-73
2021/04/25 04:02:04;;;;;;;5.47;4.93;;;;;;;5.10;30.75;101936.69;4937854;28;97652;-73
2021/04/25 04:04:31;;;;;;;5.70;5.13;;;;;;;5.09;30.81;101937.50;4958619;28;96901;-72
2021/04/25 04:06:58;;;;;;;6.00;5.43;;;;;;;5.09;30.51;101933.13;4941968;28;97240;-73
2021/04/25 04:09:25;;;;;;;6.53;5.47;;;;;;;5.10;30.46;101937.59;4957346;28;98848;-73
2021/04/25 04:11:52;;;;;;;5.88;5.22;;;;;;;5.06;30.77;101929.41;4942139;28;99384;-74
2021/04/25 04:14:19;;;;;;;5.90;5.45;;;;;;;5.03;30.77;101942.38;4942289;28;96707;-72
2021/04/25 04:16:46;;;;;;;7.22;5.28;;;;;;;5.00;30.93;101929.91;4941864;28;97120;-72
2021/04/25 04:19:13;;;;;;;9.18;5.03;;;;;;;4.97;30.70;101944.63;4941483;28;99670;-73
2021/04/25 04:21:40;;;;;;;4.78;4.28;;;;;;;4.93;30.88;101942.63;4944733;28;97656;-72
2021/04/25 04:24:08;;;;;;;5.80;4.93;;;;;;;4.91;31.08;101944.25;4944927;28;96724;-72
2021/04/25 04:26:35;;;;;;;6.70;5.18;;;;;;;4.88;31.02;101946.69;4944049;28;97090;-72
2021/04/25 04:29:03;;;;;;;6.13;5.35;;;;;;;4.86;31.01;101940.41;4960527;28;96968;-72
2021/04/25 04:31:30;;;;;;;7.20;5.55;;;;;;;4.88;30.94;101944.06;4945017;28;97855;-72
2021/04/25 04:33:57;;;;;;;8.60;5.18;;;;;;;4.81;31.23;101950.66;4962151;28;96794;-74
2021/04/25 04:36:27;;;;;;;5.35;4.85;;;;;;;4.84;31.02;101939.41;4944741;28;97394;-72
2021/04/25 04:38:55;;;;;;;6.22;5.13;;;;;;;4.86;31.06;101943.97;4943748;28;99785;-72
2021/04/25 04:41:22;;;;;;;6.22;5.40;;;;;;;4.84;30.87;101952.59;4945460;28;98684;-73
2021/04/25 04:43:49;;;;;;;5.03;4.65;;;;;;;4.80;31.38;101948.84;4945626;28;97123;-72
2021/04/25 04:46:17;;;;;;;7.82;5.35;;;;;;;4.79;31.26;101952.28;4945667;28;96851;-73
2021/04/25 04:48:44;;;;;;;6.85;5.55;;;;;;;4.76;31.19;101953.81;4945257;28;99643;-73
2021/04/25 04:51:11;;;;;;;6.00;5.35;;;;;;;4.74;31.55;101950.19;4960461;28;98992;-73
2021/04/25 04:53:38;;;;;;;6.60;5.35;;;;;;;4.70;31.24;101949.06;4944545;28;96819;-72
2021/04/25 04:56:05;;;;;;;5.30;4.80;;;;;;;4.69;31.41;101951.63;4944138;28;96849;-72
2021/04/25 04:58:32;;;;;;;7.35;5.57;;;;;;;4.70;31.40;101954.34;4945240;28;96815;-73
2021/04/25 05:00:59;;;;;;;9.43;5.05;;;;;;;4.70;31.57;101950.81;4943463;28;99918;-72
2021/04/25 05:03:28;;;;;;;16.33;8.18;;;;;;;4.69;31.58;101954.25;4943631;28;96745;-72
2021/04/25 05:05:55;;;;;;;7.80;5.10;;;;;;;4.64;31.79;101953.06;4945616;28;96697;-71
2021/04/25 05:08:22;;;;;;;7.63;5.60;;;;;;;4.66;31.53;101951.44;4960359;28;100661;-73
2021/04/25 05:10:49;;;;;;;9.18;5.22;;;;;;;4.65;31.50;101962.78;4944303;28;100553;-74
2021/04/25 05:13:15;;;;;;;8.48;5.68;;;;;;;4.66;31.48;101952.34;4937493;28;97392;-74
2021/04/25 05:15:43;;;;;;;9.27;5.55;;;;;;;4.64;31.62;101958.34;4941388;28;97456;-74
2021/04/25 05:18:10;;;;;;;9.43;5.97;;;;;;;4.61;31.71;101958.16;4925418;28;99560;-73
2021/04/25 05:20:38;;;;;;;8.40;5.75;;;;;;;4.54;32.15;101955.91;4950795;28;100219;-73
2021/04/25 05:23:05;;;;;;;7.53;5.47;;;;;;;4.54;31.79;101955.91;4944734;28;97143;-72
2021/04/25 05:25:32;;;;;;;13.65;6.32;;;;;;;4.58;31.65;101957.94;4960744;28;97890;-72
2021/04/25 05:27:59;;;;;;;9.52;6.22;;;;;;;4.56;31.48;101956.91;4942986;28;97110;-72
2021/04/25 05:30:27;;;;;;;7.43;5.25;;;;;;;4.51;31.63;101955.72;4943712;28;98156;-73
2021/04/25 05:32:54;;;;;;;9.45;6.18;;;;;;;4.47;32.15;101964.25;4944359;28;96920;-73
2021/04/25 05:35:21;;;;;;;10.85;5.75;;;;;;;4.46;32.01;101965.06;4944556;28;96911;-74
2021/04/25 05:37:49;;;;;;;9.30;6.00;;;;;;;4.42;32.25;101958.69;4942588;28;100927;-73
2021/04/25 05:40:16;;;;;;;8.00;5.53;;;;;;;4.44;32.13;101966.69;4941735;28;98448;-73
2021/04/25 05:42:44;;;;;;;8.77;5.72;;;;;;;4.43;32.13;101978.03;4944837;28;96860;-73
2021/04/25 05:45:20;;;;;;;9.13;6.32;;;;;;;4.39;32.08;101978.66;4943639;28;97815;-72
2021/04/25 05:47:52;;;;;;;7.57;5.55;;;;;;;4.33;32.44;101971.28;4942053;28;100563;-72
2021/04/25 05:50:20;;;;;;;10.70;6.07;;;;;;;4.28;32.09;101979.69;4941173;28;97570;-73
2021/04/25 05:52:47;;;;;;;8.20;6.63;;;;;;;4.23;32.57;101975.03;4943688;28;97144;-72
2021/04/25 05:55:16;;;;;;;7.20;6.18;;;;;;;4.24;32.05;101979.47;4943275;28;96831;-73
2021/04/25 05:57:43;;;;;;;7.55;6.18;;;;;;;4.24;32.59;101975.94;4942168;28;97020;-72
2021/04/25 06:00:12;;;;;;;15.30;9.10;;;;;;;4.23;32.58;101971.47;4942940;28;100541;-72
2021/04/25 06:02:39;;;;;;;9.20;6.55;;;;;;;4.23;32.33;101982.00;4945534;28;96736;-73
2021/04/25 06:05:07;;;;;;;8.48;6.05;;;;;;;4.18;32.21;101979.09;4941773;28;96725;-73
2021/04/25 06:07:40;;;;;;;9.27;6.35;;;;;;;4.14;32.36;101979.69;4942798;28;99518;-73
2021/04/25 06:10:08;;;;;;;6.88;6.03;;;;;;;4.12;32.70;101976.03;4942152;28;99099;-74
2021/04/25 06:12:37;;;;;;;12.50;6.65;;;;;;;4.12;32.53;101978.69;4928114;28;96931;-72
2021/04/25 06:15:05;;;;;;;11.65;6.32;;;;;;;4.13;32.86;101983.13;4942549;28;96837;-73
2021/04/25 06:17:32;;;;;;;8.77;5.97;;;;;;;4.17;32.37;101987.78;4942320;28;96801;-71
2021/04/25 06:19:59;;;;;;;9.43;6.18;;;;;;;4.26;32.34;101986.56;4944874;28;98598;-73
2021/04/25 06:22:28;;;;;;;7.22;6.18;;;;;;;4.34;32.18;102001.16;4945103;28;97452;-73
2021/04/25 06:24:55;;;;;;;7.68;6.95;;;;;;;4.41;32.29;101995.50;4945754;28;97174;-72
2021/04/25 06:27:24;;;;;;;7.80;6.20;;;;;;;4.52;32.33;102002.38;4946982;28;97419;-72
2021/04/25 06:29:52;;;;;;;6.72;6.03;;;;;;;4.61;32.19;102000.31;4946302;28;98639;-73
2021/04/25 06:32:19;;;;;;;9.00;6.60;;;;;;;4.70;31.99;102000.91;4947358;28;97560;-73
2021/04/25 06:34:46;;;;;;;9.00;6.13;;;;;;;4.77;31.98;102001.38;4949024;28;96882;-73
2021/04/25 06:37:13;;;;;;;6.60;6.07;;;;;;;4.84;31.71;102006.25;4931173;28;99246;-73
2021/04/25 06:39:40;;;;;;;6.10;5.60;;;;;;;4.82;32.15;102006.97;4947035;28;96610;-74
2021/04/25 06:42:07;;;;;;;8.13;5.80;;;;;;;4.70;32.37;101999.16;4947246;28;96939;-72
2021/04/25 06:44:34;;;;;;;10.35;6.57;;;;;;;4.74;31.99;102006.47;4948621;28;96798;-73
2021/04/25 06:47:02;;;;;;;8.40;6.03;;;;;;;4.74;31.95;102005.53;4947151;28;100123;-72
2021/04/25 06:49:29;;;;;;;6.18;5.38;;;;;;;4.75;31.95;102005.69;4947097;28;98351;-74
2021/04/25 06:51:56;;;;;;;7.07;5.85;;;;;;;4.73;32.01;101998.47;4947077;28;96976;-72
2021/04/25 06:54:23;;;;;;;6.72;5.95;;;;;;;4.69;32.28;102009.63;4946773;28;96841;-72
2021/04/25 06:56:50;;;;;;;10.73;6.40;;;;;;;4.74;32.33;102001.19;4944874;28;98441;-72
2021/04/25 06:59:17;;;;;;;9.05;6.50;;;;;;;4.80;32.22;102004.22;4951103;28;98421;-73
2021/04/25 07:01:45;;;;;;;11.18;6.30;;;;;;;4.80;32.15;102005.94;4942576;28;96972;-74
2021/04/25 07:04:13;;;;;;;9.02;5.85;;;;;;;4.86;31.92;101998.44;4963128;28;97081;-71
2021/04/25 07:06:39;;;;;;;7.72;6.18;;;;;;;4.93;32.03;102011.19;4940958;28;98891;-72
2021/04/25 07:09:08;;;;;;;6.68;5.95;;;;;;;4.94;32.05;102018.28;4925809;28;100656;-73
2021/04/25 07:11:35;;;;;;;8.20;5.93;;;;;;;4.92;31.96;102006.72;4945850;28;97158;-73
2021/04/25 07:14:03;;;;;;;9.27;5.35;;;;;;;4.91;32.08;102016.38;4942495;28;97336;-74
2021/04/25 07:16:30;;;;;;;8.05;5.68;;;;;;;4.97;31.97;102018.50;4942504;28;99916;-73
2021/04/25 07:18:57;;;;;;;7.93;5.28;;;;;;;5.00;31.96;102018.66;4943270;28;98364;-74
2021/04/25 07:21:25;;;;;;;6.50;5.32;;;;;;;5.02;32.01;102019.69;4945191;28;96980;-73
2021/04/25 07:23:52;;;;;;;6.10;5.22;;;;;;;5.03;32.18;102024.16;4944286;28;97381;-72
2021/04/25 07:26:20;;;;;;;7.15;5.82;;;;;;;5.00;32.01;102024.88;4944268;28;100591;-74
2021/04/25 07:28:47;;;;;;;6.70;5.10;;;;;;;5.02;32.03;102020.63;4943143;28;98341;-74
2021/04/25 07:31:14;;;;;;;8.38;5.78;;;;;;;5.07;31.80;102029.75;4944958;28;97215;-72
2021/04/25 07:33:41;;;;;;;5.90;5.20;;;;;;;5.21;31.86;102022.69;4945407;28;97395;-72
2021/04/25 07:36:09;;;;;;;6.35;5.57;;;;;;;5.33;31.53;102012.91;4944247;28;98420;-73
2021/04/25 07:38:38;;;;;;;8.18;5.47;;;;;;;5.41;31.58;102019.53;4943926;28;99638;-73
2021/04/25 07:41:05;;;;;;;7.53;5.18;;;;;;;5.39;31.92;102015.00;4944018;28;96794;-73
2021/04/25 07:43:34;;;;;;;6.30;5.22;;;;;;;5.52;31.67;102018.47;4945309;28;97139;-73
2021/04/25 07:46:02;;;;;;;4.95;4.47;;;;;;;5.58;31.61;102010.94;4943451;28;98676;-73
2021/04/25 07:48:29;;;;;;;10.95;4.90;;;;;;;5.70;31.51;102019.63;4944683;28;98850;-72
2021/04/25 07:50:56;;;;;;;7.95;5.57;;;;;;;5.72;31.34;102017.06;4928649;28;96783;-73
2021/04/25 07:53:22;;;;;;;6.40;5.57;;;;;;;5.77;31.69;102019.16;4945286;28;97046;-73
2021/04/25 07:55:50;;;;;;;5.20;4.57;;;;;;;5.87;31.24;102021.53;4927772;28;98879;-75
2021/04/25 07:58:17;;;;;;;7.57;4.25;;;;;;;5.95;31.05;102025.53;4943651;28;99762;-74
2021/04/25 08:00:44;;;;;;;7.70;5.10;;;;;;;6.03;30.83;102021.59;4927046;28;96911;-73
2021/04/25 08:03:11;;;;;;;8.30;5.90;;;;;;;6.13;31.01;102009.84;4946193;28;96930;-73
2021/04/25 08:05:38;;;;;;;7.30;4.38;;;;;;;6.25;30.63;102022.03;4944161;28;100509;-74
2021/04/25 08:08:05;;;;;;;4.90;4.40;;;;;;;6.34;30.47;102024.38;4927416;28;100731;-74
2021/04/25 08:10:33;;;;;;;4.57;4.22;;;;;;;6.39;30.74;102027.25;4946902;28;96980;-74
2021/04/25 08:13:01;;;;;;;7.07;4.43;;;;;;;6.47;30.82;102021.56;4946098;28;97836;-73
2021/04/25 08:15:28;;;;;;;4.85;4.43;;;;;;;6.52;30.36;102030.72;4928351;28;98017;-73
2021/04/25 08:17:56;;;;;;;4.45;4.07;;;;;;;6.63;30.19;102031.31;4945346;28;98720;-74
2021/04/25 08:20:23;;;;;;;4.30;3.80;;;;;;;6.68;30.50;102027.19;4943623;28;97280;-74
2021/04/25 08:22:50;;;;;;;7.10;4.95;;;;;;;6.76;30.45;102037.38;4944231;28;96880;-73
2021/04/25 08:25:18;;;;;;;7.32;4.75;;;;;;;6.79;30.49;102034.91;4943347;28;99601;-74
2021/04/25 08:27:45;;;;;;;5.03;4.47;;;;;;;6.87;29.97;102040.63;4926924;28;98856;-73
2021/04/25 08:30:14;;;;;;;7.78;4.80;;;;;;;6.93;30.18;102030.38;4943815;28;97320;-73
2021/04/25 08:32:41;;;;;;;5.95;4.70;;;;;;;6.95;29.94;102031.38;4945109;28;97759;-74
2021/04/25 08:35:09;;;;;;;5.03;4.57;;;;;;;6.95;30.25;102029.63;4944076;28;98657;-73
2021/04/25 08:37:36;;;;;;;7.95;4.32;;;;;;;7.08;30.28;102023.28;4928743;28;98801;-73
2021/04/25 08:40:04;;;;;;;5.50;5.10;;;;;;;7.20;30.23;102026.59;4945477;28;96966;-74
2021/04/25 08:42:31;;;;;;;8.52;4.57;;;;;;;7.27;29.82;102027.00;4943961;28;96838;-74
2021/04/25 08:44:59;;;;;;;5.40;4.85;;;;;;;7.40;29.83;102022.41;4939197;28;99316;-73
2021/04/25 08:47:28;;;;;;;5.47;4.93;;;;;;;7.48;29.79;102022.00;4927108;28;100657;-74
2021/04/25 08:49:58;;;;;;;8.48;4.53;;;;;;;7.60;29.52;102027.94;4942104;28;97093;-73
2021/04/25 08:52:25;;;;;;;4.60;4.20;;;;;;;7.73;29.62;102026.88;4943553;28;97229;-74
2021/04/25 08:54:53;;;;;;;7.68;4.70;;;;;;;7.78;29.68;102025.34;4943882;28;99230;-74
2021/04/25 08:57:20;;;;;;;5.88;5.25;;;;;;;7.88;29.39;102020.59;4925880;28;98426;-73
2021/04/25 08:59:47;;;;;;;5.20;4.40;;;;;;;7.95;29.17;102009.47;4943255;28;97059;-73
2021/04/25 09:02:14;;;;;;;5.45;4.72;;;;;;;8.12;29.11;102023.59;4945038;28;96877;-73
2021/04/25 09:04:42;;;;;;;6.07;4.53;;;;;;;8.27;28.88;102015.50;4942107;28;100341;-72
2021/04/25 09:07:14;;;;;;;7.85;5.20;;;;;;;8.35;29.13;102017.69;4942929;28;100574;-73
2021/04/25 09:09:43;;;;;;;4.30;3.97;;;;;;;8.32;28.73;102017.56;4938220;28;97401;-72
2021/04/25 09:12:10;;;;;;;7.15;4.13;;;;;;;8.31;28.94;102017.47;4937830;28;97425;-73
2021/04/25 09:14:39;;;;;;;8.98;4.35;;;;;;;8.28;28.99;102015.56;4942430;28;98611;-74
2021/04/25 09:17:06;;;;;;;4.95;3.75;;;;;;;8.41;28.87;102014.44;4937007;28;96783;-74
2021/04/25 09:19:56;;;;;;;10.35;4.15;;;;;;;8.32;29.05;102019.28;4923830;28;96764;-74
2021/04/25 09:22:24;;;;;;;4.40;4.10;;;;;;;8.39;29.00;102024.06;4936882;28;96861;-73
2021/04/25 09:25:07;;;;;;;4.10;3.90;;;;;;;8.44;29.12;102022.56;4937224;28;99057;-73
2021/04/25 09:27:34;;;;;;;5.22;4.47;;;;;;;8.48;28.95;102019.25;4913174;28;98143;-72
2021/04/25 09:30:05;;;;;;;5.93;4.45;;;;;;;8.54;28.94;102024.84;4937029;28;97310;-72
2021/04/25 09:32:37;;;;;;;5.47;4.15;;;;;;;8.48;28.61;102020.16;4937701;28;96962;-72
2021/04/25 09:35:12;;;;;;;4.60;4.00;;;;;;;8.46;28.79;102024.44;4938817;28;96853;-72
2021/04/25 09:37:41;;;;;;;4.97;4.10;;;;;;;8.50;28.75;102007.88;4956756;28;98070;-72
2021/04/25 09:40:11;;;;;;;4.22;3.83;;;;;;;8.64;28.47;102016.53;4924527;28;97019;-74
2021/04/25 09:43:02;;;;;;;5.57;4.18;;;;;;;8.64;28.21;102012.09;4926490;28;96857;-73
2021/04/25 09:45:34;;;;;;;8.13;5.50;;;;;;;8.61;28.58;102013.69;4943227;28;97867;-72
2021/04/25 09:48:18;;;;;;;5.53;5.03;;;;;;;8.68;28.37;102015.81;4944002;28;99069;-74
2021/04/25 09:50:48;;;;;;;6.72;4.13;;;;;;;8.73;28.50;102016.97;4926461;28;97348;-74
2021/04/25 09:53:31;;;;;;;11.30;4.30;;;;;;;8.72;28.31;102008.09;4943888;28;96896;-73
2021/04/25 09:55:59;;;;;;;4.60;4.07;;;;;;;8.73;28.45;102009.00;4946724;28;97115;-73
2021/04/25 09:58:30;;;;;;;6.00;4.03;;;;;;;8.74;28.31;102003.78;4944423;28;99724;-73
2021/04/25 10:00:56;;;;;;;5.78;4.20;;;;;;;8.82;28.44;102006.78;4945484;28;96927;-73
2021/04/25 10:03:33;;;;;;;8.50;5.00;;;;;;;8.92;28.05;101996.66;4938288;28;97354;-73
2021/04/25 10:06:04;;;;;;;4.75;4.35;;;;;;;9.04;27.98;101999.00;4943050;28;97007;-71
2021/04/25 10:08:33;;;;;;;4.80;3.90;;;;;;;9.09;28.09;102006.34;4960008;28;97025;-74
2021/04/25 10:11:02;;;;;;;4.78;4.05;;;;;;;9.10;27.95;101993.97;4956872;28;96861;-73
2021/04/25 10:13:32;;;;;;;6.05;4.20;;;;;;;9.12;27.95;101986.97;4943365;28;98243;-73
2021/04/25 10:16:00;;;;;;;5.15;4.40;;;;;;;9.13;27.81;102000.31;4944143;28;98590;-74
2021/04/25 10:18:28;;;;;;;4.60;3.95;;;;;;;9.10;27.95;102001.91;4939788;28;97785;-74
2021/04/25 10:20:56;;;;;;;5.47;3.85;;;;;;;9.03;28.05;101992.78;4944836;28;96844;-74
2021/04/25 10:23:25;;;;;;;4.95;3.45;;;;;;;9.05;28.05;101995.50;4945316;28;97280;-72
2021/04/25 10:25:52;;;;;;;7.07;4.13;;;;;;;9.09;28.15;102002.78;4943622;28;97015;-73
2021/04/25 10:28:25;;;;;;;4.40;4.10;;;;;;;9.15;27.87;101989.78;4959614;28;96991;-73
2021/04/25 10:30:58;;;;;;;6.95;4.20;;;;;;;9.18;27.79;101993.50;4944832;28;96961;-72
2021/04/25 10:33:53;;;;;;;4.07;3.75;;;;;;;9.20;27.34;102001.53;4942501;28;97108;-73
2021/04/25 10:36:21;;;;;;;7.47;4.60;;;;;;;9.16;27.78;101992.50;4941153;28;99546;-73
2021/04/25 10:38:48;;;;;;;6.30;4.05;;;;;;;9.21;27.87;101987.41;4937787;28;98053;-72
2021/04/25 10:41:20;;;;;;;6.57;4.82;;;;;;;9.29;27.57;101991.31;4943849;28;97577;-74
2021/04/25 10:44:01;;;;;;;5.22;4.50;;;;;;;9.41;27.31;101985.66;4945923;28;96663;-73
2021/04/25 10:46:58;;;;;;;6.72;4.78;;;;;;;9.41;27.50;101991.84;4941437;28;98520;-73
2021/04/25 10:49:29;;;;;;;6.57;4.38;;;;;;;9.44;27.49;101989.38;4945746;28;97556;-73
2021/04/25 10:52:22;;;;;;;16.65;10.77;;;;;;;9.59;27.04;101974.09;4936131;28;97535;-73
2021/04/25 10:55:28;;;;;;;7.97;5.13;;;;;;;9.80;27.05;101983.03;4942887;28;97329;-72
2021/04/25 10:58:22;;;;;;;8.48;5.35;;;;;;;9.80;27.37;101991.00;4959215;28;98380;-72
2021/04/25 11:00:49;;;;;;;5.38;4.03;;;;;;;9.78;27.51;101987.38;4943306;28;100634;-73
2021/04/25 11:03:41;;;;;;;5.10;4.22;;;;;;;9.79;27.05;101983.84;4926476;28;97529;-72
2021/04/25 11:06:28;;;;;;;4.00;3.70;;;;;;;9.85;27.22;101991.19;4936003;28;96896;-72
2021/04/25 11:08:56;;;;;;;4.88;4.05;;;;;;;9.91;27.26;101989.72;4967741;28;97848;-73
2021/04/25 11:11:32;;;;;;;37.42;19.88;;;;;;;10.01;27.49;101989.25;4950307;28;97177;-72
2021/04/25 11:14:00;;;;;;;11.35;8.65;;;;;;;10.10;27.09;101988.75;4951327;28;97012;-74
2021/04/25 11:16:32;;;;;;;18.58;11.50;;;;;;;10.17;27.10;101990.84;4932609;28;97409;-73
2021/04/25 11:19:00;;;;;;;5.57;5.00;;;;;;;10.23;27.07;101999.03;4943593;28;98876;-73
2021/04/25 11:21:50;;;;;;;5.18;4.30;;;;;;;10.30;26.75;102001.16;4945527;28;97981;-73
2021/04/25 11:24:37;;;;;;;15.48;10.00;;;;;;;10.33;26.88;101998.59;4945911;28;97308;-73
2021/04/25 11:27:06;;;;;;;26.80;14.88;;;;;;;10.40;26.98;101995.34;4943969;28;96966;-74
2021/04/25 11:29:58;;;;;;;9.15;6.65;;;;;;;10.47;26.55;101996.53;4942984;28;98809;-73
2021/04/25 11:32:35;;;;;;;5.97;5.45;;;;;;;10.56;25.94;101992.47;4942855;28;99860;-73
2021/04/25 11:35:12;;;;;;;4.32;4.03;;;;;;;10.65;26.20;101992.84;4943372;28;96954;-74
2021/04/25 11:37:43;;;;;;;5.72;4.97;;;;;;;10.72;26.60;102008.22;4943473;28;97186;-73
2021/04/25 11:40:12;;;;;;;4.10;3.80;;;;;;;10.77;26.73;102003.09;4943814;28;96878;-73
2021/04/25 11:42:46;;;;;;;5.30;4.15;;;;;;;10.77;26.59;102005.75;4943415;28;97766;-73